Condiciones actuales en los principales Aeropuertos de España-Datos Metar

 

LEAL - Alicante
Actualización: 25/06/2017 17:30
Despejado
Despejado
 Viento del E
Viento: E 30 km/h
Temperatura: 29°C
Heat Index: 30°C
Rocío: 19°C
Humedad: 55%
Barómetro: 1013 hPa
Resumen: Despejado
Visibilidad: greater than 10 km
2017/06/25 15:30 LEAL 251530Z 08016KT CAVOK 29/19 Q1013 NOSIG
LEAB - Albacete
Actualización: 25/06/2017 17:00
Despejado
Despejado
 Viento del S
Viento: S 22 km/h
Temperatura: 33°C
Rocío: 8°C
Humedad: 21%
Barómetro: 1015 hPa
Resumen: Despejado
Visibilidad: greater than 10 km
2017/06/25 15:00 LEAB 251500Z 17012KT 140V200 CAVOK 33/08 Q1015 NOSIG
LEAM - Almería
Actualización: 25/06/2017 17:30
Despejado
Despejado
 Viento del ENE
Viento: ENE 33 km/h
Temperatura: 34°C
Rocío: 16°C
Humedad: 34%
Barómetro: 1010 hPa
Resumen: Despejado
Visibilidad: greater than 10 km
2017/06/25 15:30 LEAM 251530Z 07018KT CAVOK 34/16 Q1010
 
LEAS - Asturias/Aviles
Actualización: 25/06/2017 17:30
Mostly Cloudy
Mostly Cloudy
 Viento del E
Viento: E 17 km/h
Temperatura: 19°C
Rocío: 17°C
Humedad: 88%
Barómetro: 1016 hPa
Nubosidad: Mostly Cloudy
Visibilidad: 10 km
Cloud details: Few Clouds 427 m
Mostly Cloudy 671 m
2017/06/25 15:30 LEAS 251530Z 10009KT 060V140 9999 FEW014 BKN022 19/17 Q1016 NOSIG
LEBZ - Badajoz/Talavera la Real
Actualización: 25/06/2017 17:00
Despejado
Despejado
 Viento del O
Viento: O 19 km/h
Temperatura: 27°C
Heat Index: 28°C
Rocío: 16°C
Humedad: 51%
Barómetro: 1014 hPa
Resumen: Despejado
Visibilidad: greater than 10 km
2017/06/25 15:00 LEBZ 251500Z 27010KT CAVOK 27/16 Q1014
LEBL - Barcelona
Actualización: 25/06/2017 17:30
Few Clouds
Few Clouds
 Viento del S
Viento: S 15 km/h
Temperatura: 26°C
Rocío: 21°C
Humedad: 74%
Barómetro: 1015 hPa
Nubosidad: Few Clouds
Visibilidad: 10 km
Cloud details: Few Clouds 1067 m
2017/06/25 15:30 LEBL 251530Z 18008KT 130V210 9999 FEW035 26/21 Q1015 NOSIG
 
LEBB - Bilbao
Actualización: 25/06/2017 17:30
Mostly Cloudy
Mostly Cloudy
 Viento del ENE
Viento: ENE 9 km/h
Temperatura: 24°C
Rocío: 18°C
Humedad: 69%
Barómetro: 1015 hPa
Nubosidad: Mostly Cloudy
Visibilidad: 10 km
Cloud details: Partly Cloudy 914 m
Mostly Cloudy 1006 m
2017/06/25 15:30 LEBB 251530Z 06005KT 030V110 9999 SCT030 BKN033 24/18 Q1015 TEMPO SHRA SCT035CB
LEBG - Burgos/Villafría
Actualización: 25/06/2017 17:30
Lluvia débil, Parcialmente nublado
Lluvia débil, Parcialmente nublado
 Viento del ENE
Viento: ENE 19 km/h
Temperatura: 23°C
Rocío: 13°C
Humedad: 53%
Barómetro: 1017 hPa
Resumen: Light Rain
Nubosidad: Partly Cloudy
Visibilidad: 10 km
2017/06/25 15:30 LEBG 251530Z 07010KT 9999 -RA NSC 23/13 Q1017
LEBA - Córdoba
Actualización: 25/06/2017 17:30
Despejado
Despejado
 Viento del SSO
Viento: SSO 28 km/h
Temperatura: 38°C
Rocío: 9°C
Humedad: 17%
Barómetro: 1008 hPa
Nubosidad: Despejado
Visibilidad: 10 km
2017/06/25 15:30 LEBA 251530Z AUTO 20015KT 160V230 9999 NCD 38/09 Q1008
 
LEGE - Gerona
Actualización: 25/06/2017 17:30
Few Clouds
Few Clouds
 Viento del SSO
Viento: SSO 13 km/h
Temperatura: 25°C
Rocío: 20°C
Humedad: 74%
Barómetro: 1015 hPa
Nubosidad: Few Clouds
Visibilidad: 10 km
Cloud details: Few Clouds 457 m
2017/06/25 15:30 LEGE 251530Z 21007KT 170V240 9999 FEW015 25/20 Q1015
LEGR - Granada
Actualización: 25/06/2017 17:30
Nearby showers, Poco nuboso
Nearby showers, Poco nuboso
 Viento del NO
Viento: NO 20 km/h, Racha: 41 km/h
Temperatura: 30°C
Rocío: 14°C
Humedad: 38%
Barómetro: 1013 hPa
Resumen: Nearby Showers
Nubosidad: Few Clouds
Visibilidad: 10 km
Cloud details: Few Clouds 1524 m
Few Clouds 1829 m
2017/06/25 15:30 LEGR 251530Z 32011G22KT 280V350 9999 VCSH FEW050 FEW060CB 30/14 Q1013
GCHI - Hierro
Actualización: 25/06/2017 17:30
Few Clouds
Few Clouds
 Viento del N
Viento: N 30 km/h
Temperatura: 25°C
Rocío: 20°C
Humedad: 74%
Barómetro: 1014 hPa
Nubosidad: Few Clouds
Visibilidad: 10 km
Cloud details: Few Clouds 427 m
2017/06/25 15:30 GCHI 251530Z 36016KT 9999 FEW014 25/20 Q1014
 
LEIB - Ibiza
Actualización: 25/06/2017 17:30
Despejado
Despejado
 Viento del E
Viento: E 22 km/h
Temperatura: 28°C
Heat Index: 30°C
Rocío: 22°C
Humedad: 70%
Barómetro: 1014 hPa
Resumen: Despejado
Visibilidad: greater than 10 km
2017/06/25 15:30 LEIB 251530Z 08012KT CAVOK 28/22 Q1014 NOSIG
LEJR - Jerez de la Frontera
Actualización: 25/06/2017 17:30
Partly Cloudy
Partly Cloudy
 Viento del NO
Viento: NO 33 km/h
Temperatura: 34°C
Rocío: 11°C
Humedad: 24%
Barómetro: 1010 hPa
Nubosidad: Partly Cloudy
Visibilidad: 8 km
Cloud details: Partly Cloudy 1219 m
2017/06/25 15:30 LEJR 251530Z 31018KT 280V340 8000 SCT040 34/11 Q1010
LECO - A Coruña
Actualización: 25/06/2017 17:30
Despejado
Despejado
 Viento del N
Viento: N 11 km/h
Temperatura: 24°C
Rocío: 16°C
Humedad: 61%
Barómetro: 1013 hPa
Resumen: Despejado
Visibilidad: greater than 10 km
2017/06/25 15:30 LECO 251530Z 01006KT 330V050 CAVOK 24/16 Q1013 NOSIG
 
GCLA - La Palma
Actualización: 25/06/2017 17:30
Few Clouds
Few Clouds
 Viento del NNE
Viento: NNE 24 km/h
Temperatura: 25°C
Rocío: 20°C
Humedad: 74%
Barómetro: 1014 hPa
Nubosidad: Few Clouds
Visibilidad: 10 km
Cloud details: Few Clouds 549 m
2017/06/25 15:30 GCLA 251530Z 02013KT 350V060 9999 FEW018 25/20 Q1014
GCRR - Lanzarote
Actualización: 25/06/2017 17:30
Despejado
Despejado
 Viento del NNE
Viento: NNE 26 km/h
Temperatura: 30°C
Heat Index: 31°C
Rocío: 19°C
Humedad: 52%
Barómetro: 1011 hPa
Resumen: Despejado
Visibilidad: greater than 10 km
2017/06/25 15:30 GCRR 251530Z 02014KT CAVOK 30/19 Q1011
GCLP - Las Palmas
Actualización: 25/06/2017 17:30
Despejado
Despejado
 Viento del NNE
Viento: NNE 39 km/h
Temperatura: 26°C
Rocío: 19°C
Humedad: 65%
Barómetro: 1013 hPa
Resumen: Despejado
Visibilidad: greater than 10 km
2017/06/25 15:30 GCLP 251530Z 02021KT CAVOK 26/19 Q1013 NOSIG
 
LELN - León
Actualización: 25/06/2017 17:00
Lluvia débil, Parcialmente nublado
Lluvia débil, Parcialmente nublado
 Viento del N
Viento: N 7 km/h
Temperatura: 20°C
Rocío: 14°C
Humedad: 69%
Barómetro: 1017 hPa
Resumen: Light Rain
Nubosidad: Partly Cloudy
Visibilidad: 10 km
Cloud details: Partly Cloudy 1463 m
2017/06/25 15:00 LELN 251500Z 01004KT 330V040 9999 -RA SCT048 20/14 Q1017
LELO - Logroño
Actualización: 25/06/2017 17:00
Few Clouds
Few Clouds
 Viento del E
Viento: E 7 km/h
Temperatura: 26°C
Rocío: 16°C
Humedad: 54%
Barómetro: 1015 hPa
Nubosidad: Few Clouds
Visibilidad: 10 km
Cloud details: Few Clouds 1829 m
2017/06/25 15:00 LELO 251500Z 08004KT 040V100 9999 FEW060 26/16 Q1015
LECV - Madrid/Colmenar
Actualización: 25/06/2017 17:23
Lluvia débil, Showers, Cubierto
Lluvia débil, Showers, Cubierto
 Viento del varies
Viento: varies 44 km/h, Racha: 74 km/h
Temperatura: 22°C
Rocío: 14°C
Humedad: 61%
Barómetro: 1018 hPa
Resumen: Lluvia débil, Showers
Nubosidad: Cubierto
Visibilidad: 5 km
Cloud details: Few Clouds 1524 m
Cubierto 3048 m
2017/06/25 15:23 LECV 251523Z VRB24G40KT 5000 -SHRA FEW050 OVC100CB 22/14 Q1018
 
LEMD - Madrid/Barajas
Actualización: 25/06/2017 17:30
Nearby showers, Parcialmente nublado
Nearby showers, Parcialmente nublado
 Viento del SE
Viento: SE 9 km/h
Temperatura: 26°C
Rocío: 15°C
Humedad: 51%
Barómetro: 1014 hPa
Resumen: Nearby Showers
Nubosidad: Partly Cloudy
Visibilidad: 10 km
Cloud details: Partly Cloudy 2134 m
2017/06/25 15:30 LEMD 251530Z 13005KT 100V160 9999 VCSH SCT070CB 26/15 Q1014 WS ALL RWY BECMG NSW
LEVS - Madrid/Cuatro Vientos
Actualización: 25/06/2017 17:30
Partly Cloudy
Partly Cloudy
 Viento del ONO
Viento: ONO 15 km/h
Temperatura: 24°C
Rocío: 14°C
Humedad: 54%
Barómetro: 1015 hPa
Nubosidad: Partly Cloudy
Visibilidad: 10 km
Cloud details: Few Clouds 1067 m
Partly Cloudy 1372 m
2017/06/25 15:30 LEVS 251530Z 29008KT 260V330 9999 FEW035 SCT045CB 24/14 Q1015
LEGT - Madrid/Getafe
Actualización: 25/06/2017 17:16
Nearby thunderstorm, Parcialmente nublado
Nearby thunderstorm, Parcialmente nublado
 Viento del NO
Viento: NO 6 km/h
Temperatura: 27°C
Heat Index: 27°C
Rocío: 13°C
Humedad: 42%
Barómetro: 1014 hPa
Resumen: Nearby Thunderstorm
Nubosidad: Partly Cloudy
Visibilidad: 10 km
Cloud details: Few Clouds 610 m
Partly Cloudy 1067 m
2017/06/25 15:16 LEGT 251516Z 31003KT 9999 VCTS FEW020 SCT035CB 27/13 Q1014
 
LETO - Madrid/Torrejón
Actualización: 25/06/2017 17:41
Few Clouds
Few Clouds
 Viento del NO
Viento: NO 19 km/h
Temperatura: 27°C
Heat Index: 27°C
Rocío: 13°C
Humedad: 42%
Barómetro: 1013 hPa
Nubosidad: Few Clouds
Visibilidad: 10 km
Cloud details: Few Clouds 1372 m
2017/06/25 15:41 LETO 251541Z 32010KT 9999 FEW045CB 27/13 Q1013 NOSIG
LEMG - Málaga
Actualización: 25/06/2017 17:30
Despejado
Despejado
 Viento del SE
Viento: SE 17 km/h
Temperatura: 29°C
Heat Index: 29°C
Rocío: 17°C
Humedad: 48%
Barómetro: 1011 hPa
Resumen: Despejado
Visibilidad: greater than 10 km
2017/06/25 15:30 LEMG 251530Z 14009KT 110V190 CAVOK 29/17 Q1011 NOSIG
GEML - Melilla
Actualización: 25/06/2017 17:30
Few Clouds
Few Clouds
 Viento del ENE
Viento: ENE 11 km/h
Temperatura: 27°C
Heat Index: 31°C
Rocío: 24°C
Humedad: 84%
Barómetro: 1010 hPa
Nubosidad: Few Clouds
Visibilidad: 10 km
Cloud details: Few Clouds 213 m
2017/06/25 15:30 GEML 251530Z 07006KT 030V120 9999 FEW007 27/24 Q1010
 
LEMH - Mahón
Actualización: 25/06/2017 17:30
Despejado
Despejado
 Viento del ESE
Viento: ESE 17 km/h
Temperatura: 29°C
Heat Index: 30°C
Rocío: 19°C
Humedad: 55%
Barómetro: 1016 hPa
Resumen: Despejado
Visibilidad: greater than 10 km
2017/06/25 15:30 LEMH 251530Z 11009KT 070V140 CAVOK 29/19 Q1016
LEMO - Morón de La Frontera
Actualización: 25/06/2017 17:00
Despejado
Despejado
 Viento del O
Viento: O 24 km/h
Temperatura: 37°C
Rocío: 11°C
Humedad: 21%
Barómetro: 1009 hPa
Resumen: Despejado
Visibilidad: greater than 10 km
2017/06/25 15:00 LEMO 251500Z 26013KT 210V290 CAVOK 37/11 Q1009 NOSIG
LERI - Murcia/Alcantarilla
Actualización: 25/06/2017 17:00
Despejado
Despejado
 Viento del ENE
Viento: ENE 19 km/h
Temperatura: 33°C
Rocío: 11°C
Humedad: 26%
Barómetro: 1013 hPa
Resumen: Despejado
Visibilidad: greater than 10 km
2017/06/25 15:00 LERI 251500Z 07010KT CAVOK 33/11 Q1013 NOSIG
 
LELC - Murcia/San Javier
Actualización: 25/06/2017 17:00
Few Clouds
Few Clouds
 Viento del NE
Viento: NE 22 km/h
Temperatura: 27°C
Heat Index: 29°C
Rocío: 22°C
Humedad: 74%
Barómetro: 1014 hPa
Nubosidad: Few Clouds
Visibilidad: 8 km
Cloud details: Few Clouds 305 m
2017/06/25 15:00 LELC 251500Z 05012KT 010V090 8000 FEW010 27/22 Q1014 NOSIG
LEPA - Palma de Mallorca
Actualización: 25/06/2017 17:30
Despejado
Despejado
 Viento del O
Viento: O 9 km/h
Temperatura: 33°C
Rocío: 17°C
Humedad: 38%
Barómetro: 1014 hPa
Resumen: Despejado
Visibilidad: greater than 10 km
2017/06/25 15:30 LEPA 251530Z 26005KT 220V340 CAVOK 33/17 Q1014 NOSIG
LEPP - Pamplona
Actualización: 25/06/2017 17:30
Despejado
Despejado
 Viento del SSO
Viento: SSO 11 km/h
Temperatura: 27°C
Heat Index: 28°C
Rocío: 18°C
Humedad: 58%
Barómetro: 1015 hPa
Resumen: Despejado
Visibilidad: greater than 10 km
2017/06/25 15:30 LEPP 251530Z 20006KT 170V240 CAVOK 27/18 Q1015
 
LERS - Reus
Actualización: 25/06/2017 17:30
Partly Cloudy
Partly Cloudy
 Viento del SSE
Viento: SSE 7 km/h
Temperatura: 29°C
Heat Index: 31°C
Rocío: 21°C
Humedad: 62%
Barómetro: 1015 hPa
Nubosidad: Partly Cloudy
Visibilidad: 10 km
Cloud details: Partly Cloudy 732 m
2017/06/25 15:30 LERS 251530Z 15004KT 070V220 9999 SCT024 29/21 Q1015
LERT - Rota
Actualización: 25/06/2017 17:00
Smoke, Parcialmente nublado
Smoke, Parcialmente nublado
 Viento del NO
Viento: NO 44 km/h, Racha: 67 km/h
Temperatura: 31°C
Rocío: 15°C
Humedad: 38%
Barómetro: 1011 hPa
Resumen: Smoke
Nubosidad: Partly Cloudy
Visibilidad: 5 km
2017/06/25 15:00 LERT 251500Z 32024G36KT 5000 FU NSC 31/15 Q1011 NOSIG
LELL - Sabadell
Actualización: 25/06/2017 17:30
Few Clouds
Few Clouds
 Viento del E
Viento: E 17 km/h
Temperatura: 28°C
Heat Index: 30°C
Rocío: 21°C
Humedad: 66%
Barómetro: 1015 hPa
Nubosidad: Few Clouds
Visibilidad: 10 km
Cloud details: Few Clouds 884 m
2017/06/25 15:30 LELL 251530Z 09009KT 060V140 9999 FEW029 28/21 Q1015
 
LESA - Salamanca
Actualización: 25/06/2017 17:30
Few Clouds
Few Clouds
 Viento del ESE
Viento: ESE 6 km/h
Temperatura: 24°C
Rocío: 14°C
Humedad: 54%
Barómetro: 1015 hPa
Nubosidad: Few Clouds
Visibilidad: 10 km
Cloud details: Few Clouds 1372 m
2017/06/25 15:30 LESA 251530Z 11003KT 080V140 9999 FEW045 24/14 Q1015
LESO - San Sebastián
Actualización: 25/06/2017 17:30
Few Clouds
Few Clouds
 Viento del NE
Viento: NE 13 km/h
Temperatura: 25°C
Rocío: 18°C
Humedad: 65%
Barómetro: 1015 hPa
Nubosidad: Few Clouds
Visibilidad: 10 km
Cloud details: Few Clouds 975 m
2017/06/25 15:30 LESO 251530Z 05007KT 020V100 9999 FEW032 25/18 Q1015
LEXJ - Santander
Actualización: 25/06/2017 17:30
Despejado
Despejado
 Viento del E
Viento: E 17 km/h
Temperatura: 22°C
Rocío: 16°C
Humedad: 69%
Barómetro: 1015 hPa
Resumen: Despejado
Visibilidad: greater than 10 km
2017/06/25 15:30 LEXJ 251530Z 08009KT 020V120 CAVOK 22/16 Q1015
 
LEPA - Palma de Mallorca
Actualización: 25/06/2017 17:30
Despejado
Despejado
 Viento del O
Viento: O 9 km/h
Temperatura: 33°C
Rocío: 17°C
Humedad: 38%
Barómetro: 1014 hPa
Resumen: Despejado
Visibilidad: greater than 10 km
2017/06/25 15:30 LEPA 251530Z 26005KT 220V340 CAVOK 33/17 Q1014 NOSIG
LEPP - Pamplona
Actualización: 25/06/2017 17:30
Despejado
Despejado
 Viento del SSO
Viento: SSO 11 km/h
Temperatura: 27°C
Heat Index: 28°C
Rocío: 18°C
Humedad: 58%
Barómetro: 1015 hPa
Resumen: Despejado
Visibilidad: greater than 10 km
2017/06/25 15:30 LEPP 251530Z 20006KT 170V240 CAVOK 27/18 Q1015
LEST - Santiago de Compostela
Actualización: 25/06/2017 17:30
Few Clouds
Few Clouds
 Viento del NNE
Viento: NNE 6 km/h
Temperatura: 26°C
Rocío: 16°C
Humedad: 54%
Barómetro: 1014 hPa
Nubosidad: Few Clouds
Visibilidad: 10 km
Cloud details: Few Clouds 1341 m
2017/06/25 15:30 LEST 251530Z 02003KT 310V060 9999 FEW044 26/16 Q1014 NOSIG
 
LEZL - Sevilla
Actualización: 25/06/2017 17:30
Despejado
Despejado
 Viento del NO
Viento: NO 37 km/h
Temperatura: 34°C
Rocío: 11°C
Humedad: 24%
Barómetro: 1010 hPa
Resumen: Despejado
Visibilidad: greater than 10 km
2017/06/25 15:30 LEZL 251530Z 31020KT 280V340 CAVOK 34/11 Q1010 NOSIG
GCXO - Tenerife
Actualización: 25/06/2017 17:30
Despejado
Despejado
 Viento del ONO
Viento: ONO 20 km/h
Temperatura: 24°C
Rocío: 18°C
Humedad: 69%
Barómetro: 1016 hPa
Resumen: Despejado
Visibilidad: greater than 10 km
2017/06/25 15:30 GCXO 251530Z 29011KT CAVOK 24/18 Q1016 NOSIG
GCTS - Tenerife-Sur
Actualización: 25/06/2017 17:30
Despejado
Despejado
 Viento del E
Viento: E 30 km/h
Temperatura: 29°C
Heat Index: 30°C
Rocío: 19°C
Humedad: 55%
Barómetro: 1013 hPa
Resumen: Despejado
Visibilidad: greater than 10 km
2017/06/25 15:30 GCTS 251530Z 09016KT CAVOK 29/19 Q1013 NOSIG
 
LEVC - Valencia
Actualización: 25/06/2017 17:30
Few Clouds
Few Clouds
 Viento del E
Viento: E 20 km/h
Temperatura: 28°C
Heat Index: 29°C
Rocío: 20°C
Humedad: 62%
Barómetro: 1014 hPa
Nubosidad: Few Clouds
Visibilidad: 10 km
Cloud details: Few Clouds 762 m
2017/06/25 15:30 LEVC 251530Z 10011KT 9999 FEW025 28/20 Q1014 NOSIG
LEVD - Valladolid
Actualización: 25/06/2017 17:30
Few Clouds
Few Clouds
 Viento del O
Viento: O 6 km/h
Temperatura: 26°C
Rocío: 8°C
Humedad: 32%
Barómetro: 1016 hPa
Nubosidad: Few Clouds
Visibilidad: 10 km
Cloud details: Few Clouds 1097 m
2017/06/25 15:30 LEVD 251530Z 28003KT 200V340 9999 FEW036 26/08 Q1016
LEVX - Vigo
Actualización: 25/06/2017 17:30
Few Clouds
Few Clouds
 Viento del O
Viento: O 11 km/h
Temperatura: 24°C
Rocío: 16°C
Humedad: 61%
Barómetro: 1013 hPa
Nubosidad: Few Clouds
Visibilidad: 10 km
Cloud details: Few Clouds 762 m
2017/06/25 15:30 LEVX 251530Z 27006KT 240V300 9999 FEW025 24/16 Q1013 NOSIG
 
LEVT - Vitoria
Actualización: 25/06/2017 17:30
Few Clouds
Few Clouds
 Viento del NE
Viento: NE 11 km/h
Temperatura: 20°C
Rocío: 18°C
Humedad: 88%
Barómetro: 1016 hPa
Nubosidad: Few Clouds
Visibilidad: 10 km
Cloud details: Few Clouds 762 m
2017/06/25 15:30 LEVT 251530Z 05006KT 010V090 9999 FEW025 20/18 Q1016
LEZG - Zaragoza
Actualización: 25/06/2017 17:30
Partly Cloudy
Partly Cloudy
 Viento del SE
Viento: SE 2 km/h
Temperatura: 29°C
Heat Index: 29°C
Rocío: 16°C
Humedad: 45%
Barómetro: 1014 hPa
Nubosidad: Partly Cloudy
Visibilidad: 10 km
Cloud details: Partly Cloudy 1829 m
2017/06/25 15:30 LEZG 251530Z 13001KT 9999 SCT060 29/16 Q1014

La estación de MeteoMurcia.com, publica sus datos en los siguientes proyectos:

Meteoclimatic www.awekas.at

W3Counter
Web Analytics